Time;durP1;ratioP1;P1;durP2;ratioP2;P2;SDS_P1;SDS_P2;PMS_P1;PMS_P2;Temp;Humidity;BMP_temperature;BMP_pressure;BME280_temperature;BME280_humidity;BME280_pressure;Samples;Min_cycle;Max_cycle;Signal;HPM_P1;HPM_P2
2022/03/24 00:01:59;;;;;;;;;;;;;;;1.06;71.28;99776.86;1718012;83;21146;-69
2022/03/24 00:04:26;;;;;;;;;;;;;;;1.03;71.40;99771.95;1717850;83;20121;-69
2022/03/24 00:06:53;;;;;;;;;;;;;;;1.01;71.42;99771.91;1718084;83;20144;-69
2022/03/24 00:09:20;;;;;;;;;;;;;;;0.96;71.48;99764.02;1718334;83;20436;-69
2022/03/24 00:11:47;;;;;;;;;;;;;;;0.93;71.81;99763.69;1718349;83;20133;-69
2022/03/24 00:14:16;;;;;;;;;;;;;;;0.88;72.09;99759.55;1718060;83;21110;-70
2022/03/24 00:16:44;;;;;;;;;;;;;;;0.85;72.19;99749.23;1718173;83;20102;-69
2022/03/24 00:19:12;;;;;;;;;;;;;;;0.81;72.26;99748.91;1718090;83;20460;-69
2022/03/24 00:21:39;;;;;;;;;;;;;;;0.78;72.43;99749.41;1718029;83;20133;-69
2022/03/24 00:24:08;;;;;;;;;;;;;;;0.75;72.52;99735.56;1718043;83;20153;-69
2022/03/24 00:26:36;;;;;;;;;;;;;;;0.75;72.54;99731.52;1718215;83;21763;-69
2022/03/24 00:29:04;;;;;;;;;;;;;;;0.72;72.57;99729.30;1717991;83;20121;-69
2022/03/24 00:31:34;;;;;;;;;;;;;;;0.69;72.76;99729.80;1713423;83;20094;-69
2022/03/24 00:34:01;;;;;;;;;;;;;;;0.65;72.98;99720.83;1718281;83;20117;-69
2022/03/24 00:36:29;;;;;;;;;;;;;;;0.60;73.27;99719.40;1718231;83;20085;-69
2022/03/24 00:38:57;;;;;;;;;;;;;;;0.59;73.54;99716.41;1718196;83;22129;-68
2022/03/24 00:41:23;;;;;;;;;;;;;;;0.57;73.67;99716.41;1716665;83;20164;-72
2022/03/24 00:43:51;;;;;;;;;;;;;;;0.54;73.90;99711.49;1717202;83;20098;-69
2022/03/24 00:46:21;;;;;;;;;;;;;;;0.53;73.88;99708.50;1717178;83;20085;-69
2022/03/24 00:48:52;;;;;;;;;;;;;;;0.49;73.86;99700.08;1717640;83;20122;-68
2022/03/24 00:51:19;;;;;;;;;;;;;;;0.48;74.01;99694.38;1717049;83;21114;-68
2022/03/24 00:53:47;;;;;;;;;;;;;;;0.46;74.13;99689.76;1717059;83;20097;-68
2022/03/24 00:56:14;;;;;;;;;;;;;;;0.44;74.19;99690.53;1717159;83;20443;-69
2022/03/24 00:58:42;;;;;;;;;;;;;;;0.39;74.27;99685.05;1716883;83;20580;-71
2022/03/24 01:01:12;;;;;;;;;;;;;;;0.38;74.28;99683.42;1715192;83;20141;-69
2022/03/24 01:03:40;;;;;;;;;;;;;;;0.33;74.22;99675.23;1717072;83;21818;-69
2022/03/24 01:06:07;;;;;;;;;;;;;;;0.32;74.43;99670.36;1716687;83;20491;-69
2022/03/24 01:08:37;;;;;;;;;;;;;;;0.31;74.71;99661.98;1716905;83;20101;-70
2022/03/24 01:11:07;;;;;;;;;;;;;;;0.28;74.64;99661.12;1717054;83;20085;-69
2022/03/24 01:13:38;;;;;;;;;;;;;;;0.26;74.68;99665.95;1717066;83;20093;-69
2022/03/24 01:16:09;;;;;;;;;;;;;;;0.20;74.74;99657.47;1717360;83;21245;-69
2022/03/24 01:18:38;;;;;;;;;;;;;;;0.14;74.68;99654.94;1717009;83;20097;-69
2022/03/24 01:21:05;;;;;;;;;;;;;;;0.09;74.77;99652.97;1716956;83;20101;-68
2022/03/24 01:23:32;;;;;;;;;;;;;;;0.06;74.78;99645.36;1716993;83;20118;-68
2022/03/24 01:26:00;;;;;;;;;;;;;;;0.02;74.82;99647.44;1717034;83;20097;-71
2022/03/24 01:28:28;;;;;;;;;;;;;;;-0.02;74.91;99648.49;1717426;83;21083;-69
2022/03/24 01:30:56;;;;;;;;;;;;;;;-0.05;75.24;99640.35;1717179;83;20114;-69
2022/03/24 01:33:23;;;;;;;;;;;;;;;-0.08;75.43;99638.67;1717339;83;20182;-69
2022/03/24 01:35:52;;;;;;;;;;;;;;;-0.12;75.52;99634.82;1717253;83;20427;-70
2022/03/24 01:38:19;;;;;;;;;;;;;;;-0.15;75.71;99625.86;1717160;83;20097;-72
2022/03/24 01:40:47;;;;;;;;;;;;;;;-0.17;76.03;99627.45;1717548;83;21264;-70
2022/03/24 01:43:14;;;;;;;;;;;;;;;-0.20;76.08;99629.30;1716967;83;20105;-70
2022/03/24 01:45:42;;;;;;;;;;;;;;;-0.22;76.08;99614.41;1716985;83;20109;-70
2022/03/24 01:48:09;;;;;;;;;;;;;;;-0.23;76.27;99613.59;1717079;83;20125;-69
2022/03/24 01:50:36;;;;;;;;;;;;;;;-0.23;76.27;99610.89;1717314;83;20085;-69
2022/03/24 01:53:04;;;;;;;;;;;;;;;-0.26;76.35;99607.33;1717111;83;21170;-69
2022/03/24 01:55:33;;;;;;;;;;;;;;;-0.28;76.34;99600.02;1717231;83;20109;-70
2022/03/24 01:58:02;;;;;;;;;;;;;;;-0.30;76.56;99607.53;1717339;83;20191;-70
2022/03/24 02:00:31;;;;;;;;;;;;;;;-0.34;76.66;99595.59;1717151;83;20427;-70
2022/03/24 02:03:01;;;;;;;;;;;;;;;-0.38;76.86;99587.16;1717271;83;20464;-69
2022/03/24 02:05:34;;;;;;;;;;;;;;;-0.36;76.95;99587.73;1695167;83;21801;-69
2022/03/24 02:08:03;;;;;;;;;;;;;;;-0.35;76.93;99588.56;1717252;83;20117;-69
2022/03/24 02:10:31;;;;;;;;;;;;;;;-0.36;76.97;99588.27;1717166;83;20156;-69
2022/03/24 02:12:59;;;;;;;;;;;;;;;-0.38;76.89;99589.05;1717101;83;20093;-69
2022/03/24 02:15:27;;;;;;;;;;;;;;;-0.41;77.11;99581.44;1717289;83;20169;-69
2022/03/24 02:17:54;;;;;;;;;;;;;;;-0.44;77.22;99576.00;1717121;83;21159;-68
2022/03/24 02:20:25;;;;;;;;;;;;;;;-0.47;77.25;99579.18;1717141;83;20161;-68
2022/03/24 02:22:51;;;;;;;;;;;;;;;-0.50;77.46;99576.97;1717320;83;20121;-69
2022/03/24 02:25:18;;;;;;;;;;;;;;;-0.55;77.57;99573.36;1717236;83;20113;-69
2022/03/24 02:27:52;;;;;;;;;;;;;;;-0.57;77.67;99577.65;1717327;83;20089;-69
2022/03/24 02:30:14;;;;;;;;;;;;;;;-0.58;77.53;99573.34;1716462;83;21143;-69
2022/03/24 02:32:42;;;;;;;;;;;;;;;-0.55;77.55;99578.75;1717339;83;20417;-69
2022/03/24 02:35:10;;;;;;;;;;;;;;;-0.52;77.56;99577.74;1717299;83;20094;-71
2022/03/24 02:37:38;;;;;;;;;;;;;;;-0.46;77.55;99588.09;1717129;83;20433;-69
2022/03/24 02:40:09;;;;;;;;;;;;;;;-0.43;77.05;99578.98;1717197;83;20174;-70
2022/03/24 02:42:41;;;;;;;;;;;;;;;-0.45;76.75;99578.94;1713401;83;21221;-69
2022/03/24 02:45:10;;;;;;;;;;;;;;;-0.47;76.93;99577.83;1717270;83;20088;-69
2022/03/24 02:47:38;;;;;;;;;;;;;;;-0.41;76.91;99579.56;1717433;83;20457;-69
2022/03/24 02:50:09;;;;;;;;;;;;;;;-0.39;76.92;99577.44;1717286;83;20101;-69
2022/03/24 02:52:37;;;;;;;;;;;;;;;-0.27;77.22;99571.97;1717530;83;20085;-69
2022/03/24 02:55:07;;;;;;;;;;;;;;;-0.12;77.23;99569.53;1715537;83;21156;-69
2022/03/24 02:57:34;;;;;;;;;;;;;;;0.00;76.78;99566.19;1717358;83;20097;-70
2022/03/24 03:00:01;;;;;;;;;;;;;;;0.03;76.46;99564.06;1717333;83;20077;-71
2022/03/24 03:02:28;;;;;;;;;;;;;;;0.04;76.44;99558.95;1717197;83;20077;-70
2022/03/24 03:04:57;;;;;;;;;;;;;;;0.04;76.45;99553.55;1713730;83;20448;-68
2022/03/24 03:07:24;;;;;;;;;;;;;;;0.03;76.37;99558.13;1717120;83;21142;-69
2022/03/24 03:09:51;;;;;;;;;;;;;;;0.02;76.73;99567.82;1717296;83;20085;-69
2022/03/24 03:12:17;;;;;;;;;;;;;;;0.14;76.86;99549.66;1717375;83;20090;-69
2022/03/24 03:14:46;;;;;;;;;;;;;;;0.28;76.85;99553.64;1717269;83;20415;-70
2022/03/24 03:17:15;;;;;;;;;;;;;;;0.50;76.44;99553.15;1717311;83;20132;-69
2022/03/24 03:19:43;;;;;;;;;;;;;;;0.78;75.79;99551.31;1717268;83;21172;-69
2022/03/24 03:22:14;;;;;;;;;;;;;;;1.02;75.09;99549.98;1717263;83;20176;-69
2022/03/24 03:24:42;;;;;;;;;;;;;;;1.18;74.27;99543.65;1717124;83;20185;-69
2022/03/24 03:27:12;;;;;;;;;;;;;;;1.36;73.82;99538.95;1716948;83;20121;-70
2022/03/24 03:29:41;;;;;;;;;;;;;;;1.45;73.10;99537.42;1717274;83;20446;-69
2022/03/24 03:32:09;;;;;;;;;;;;;;;1.52;72.69;99534.80;1717167;83;21154;-68
2022/03/24 03:34:38;;;;;;;;;;;;;;;1.63;72.37;99536.52;1717172;83;20121;-70
2022/03/24 03:37:05;;;;;;;;;;;;;;;1.69;71.93;99538.73;1717204;83;20121;-69
2022/03/24 03:39:32;;;;;;;;;;;;;;;1.69;71.55;99537.92;1717263;83;20429;-70
2022/03/24 03:42:01;;;;;;;;;;;;;;;1.67;71.26;99530.59;1722866;82;20082;-69
2022/03/24 03:44:28;;;;;;;;;;;;;;;1.59;71.31;99530.52;1745697;82;21140;-70
2022/03/24 03:46:55;;;;;;;;;;;;;;;1.53;71.28;99527.49;1744399;82;20396;-69
2022/03/24 03:49:22;;;;;;;;;;;;;;;1.51;71.44;99524.23;1744620;82;20434;-70
2022/03/24 03:51:49;;;;;;;;;;;;;;;1.56;71.26;99530.50;1744390;82;20119;-68
2022/03/24 03:54:16;;;;;;;;;;;;;;;1.62;71.10;99527.31;1744415;82;20128;-69
2022/03/24 03:56:43;;;;;;;;;;;;;;;1.65;70.98;99529.50;1744476;82;21149;-69
2022/03/24 03:59:10;;;;;;;;;;;;;;;1.69;70.82;99527.91;1744356;82;20095;-69
2022/03/24 04:01:38;;;;;;;;;;;;;;;1.74;70.65;99525.75;1744527;82;20170;-69
2022/03/24 04:04:12;;;;;;;;;;;;;;;1.76;70.39;99528.48;1744454;82;20508;-69
2022/03/24 04:06:34;;;;;;;;;;;;;;;1.77;70.30;99530.11;1715426;82;20143;-70
2022/03/24 04:09:02;;;;;;;;;;;;;;;1.76;70.19;99520.90;1714719;83;21294;-68
2022/03/24 04:11:30;;;;;;;;;;;;;;;1.76;70.16;99529.02;1714869;83;20146;-68
2022/03/24 04:13:57;;;;;;;;;;;;;;;1.78;70.05;99525.52;1714773;82;20110;-70
2022/03/24 04:16:24;;;;;;;;;;;;;;;1.76;69.98;99527.13;1714899;82;20119;-71
2022/03/24 04:18:51;;;;;;;;;;;;;;;1.76;69.90;99527.13;1714940;82;20135;-74
2022/03/24 04:21:20;;;;;;;;;;;;;;;1.75;69.84;99528.20;1714922;82;21244;-69
2022/03/24 04:23:47;;;;;;;;;;;;;;;1.74;69.88;99529.81;1714921;83;20186;-69
2022/03/24 04:26:16;;;;;;;;;;;;;;;1.72;69.90;99526.58;1714605;83;20126;-68
2022/03/24 04:28:43;;;;;;;;;;;;;;;1.71;70.01;99523.59;1717469;82;20465;-69
2022/03/24 04:31:11;;;;;;;;;;;;;;;1.72;70.08;99526.58;1737930;82;20083;-69
2022/03/24 04:33:40;;;;;;;;;;;;;;;1.71;70.13;99531.17;1718992;82;21165;-69
2022/03/24 04:36:08;;;;;;;;;;;;;;;1.76;70.27;99534.43;1715043;83;20122;-68
2022/03/24 04:38:37;;;;;;;;;;;;;;;1.78;70.30;99533.09;1715140;83;20409;-68
2022/03/24 04:41:08;;;;;;;;;;;;;;;1.83;70.29;99534.49;1714248;83;20086;-69
2022/03/24 04:43:34;;;;;;;;;;;;;;;1.87;70.29;99536.96;1714597;83;20086;-69
2022/03/24 04:46:01;;;;;;;;;;;;;;;1.94;70.96;99541.62;1715612;83;21286;-69
2022/03/24 04:48:35;;;;;;;;;;;;;;;2.05;71.70;99540.34;1716865;83;20117;-69
2022/03/24 04:50:58;;;;;;;;;;;;;;;2.18;72.36;99542.06;1716443;83;20413;-68
2022/03/24 04:53:25;;;;;;;;;;;;;;;2.30;72.96;99535.10;1716900;83;20070;-71
2022/03/24 04:55:52;;;;;;;;;;;;;;;2.42;72.30;99538.93;1717048;83;20117;-68
2022/03/24 04:58:19;;;;;;;;;;;;;;;2.49;71.91;99543.04;1717083;83;21249;-69
2022/03/24 05:00:46;;;;;;;;;;;;;;;2.56;71.61;99545.52;1717033;83;20109;-69
2022/03/24 05:03:14;;;;;;;;;;;;;;;2.62;72.57;99549.34;1717141;83;20158;-69
2022/03/24 05:05:42;;;;;;;;;;;;;;;2.71;72.86;99544.78;1717231;83;20425;-68
2022/03/24 05:08:10;;;;;;;;;;;;;;;2.80;72.17;99546.72;1717030;83;20081;-68
2022/03/24 05:10:38;;;;;;;;;;;;;;;2.93;72.20;99550.27;1717198;83;21094;-68
2022/03/24 05:13:06;;;;;;;;;;;;;;;3.06;70.67;99553.57;1717180;83;20421;-68
2022/03/24 05:15:34;;;;;;;;;;;;;;;3.18;68.34;99559.58;1717066;83;20125;-70
2022/03/24 05:18:01;;;;;;;;;;;;;;;3.31;68.98;99556.36;1717159;83;20426;-68
2022/03/24 05:20:28;;;;;;;;;;;;;;;3.47;69.58;99558.53;1717086;83;20138;-69
2022/03/24 05:22:56;;;;;;;;;;;;;;;3.60;67.40;99564.27;1719514;82;20485;-68
2022/03/24 05:25:26;;;;;;;;;;;;;;;3.70;66.43;99567.53;1732540;82;20434;-68
2022/03/24 05:27:53;;;;;;;;;;;;;;;3.77;65.76;99562.66;1745857;82;20413;-69
2022/03/24 05:30:20;;;;;;;;;;;;;;;3.84;65.60;99562.39;1744729;82;20139;-68
2022/03/24 05:32:47;;;;;;;;;;;;;;;3.92;65.79;99570.00;1745300;82;20125;-70
2022/03/24 05:35:14;;;;;;;;;;;;;;;3.99;64.01;99566.47;1746539;82;21821;-69
2022/03/24 05:37:41;;;;;;;;;;;;;;;4.04;64.44;99565.66;1745970;82;20145;-70
2022/03/24 05:40:11;;;;;;;;;;;;;;;4.12;64.99;99572.69;1738181;82;20211;-69
2022/03/24 05:42:37;;;;;;;;;;;;;;;4.21;64.66;99571.59;1725549;82;20085;-70
2022/03/24 05:45:05;;;;;;;;;;;;;;;4.27;63.95;99563.16;1717332;83;20134;-69
2022/03/24 05:47:32;;;;;;;;;;;;;;;4.37;64.35;99565.59;1712964;83;21070;-68
2022/03/24 05:49:59;;;;;;;;;;;;;;;4.46;63.21;99567.48;1712772;84;20248;-69
2022/03/24 05:52:29;;;;;;;;;;;;;;;4.53;63.48;99566.66;1711133;83;20165;-70
2022/03/24 05:54:56;;;;;;;;;;;;;;;4.63;62.81;99568.50;1712889;84;20513;-70
2022/03/24 05:57:23;;;;;;;;;;;;;;;4.73;62.09;99571.74;1712937;83;20121;-68
2022/03/24 05:59:50;;;;;;;;;;;;;;;4.80;60.98;99569.55;1712765;84;21154;-68
2022/03/24 06:02:21;;;;;;;;;;;;;;;4.86;61.95;99569.80;1712665;84;20090;-68
2022/03/24 06:04:48;;;;;;;;;;;;;;;4.94;61.19;99559.16;1721388;82;20139;-69
2022/03/24 06:07:15;;;;;;;;;;;;;;;5.05;61.07;99564.56;1723906;82;20138;-69
2022/03/24 06:09:42;;;;;;;;;;;;;;;5.14;60.69;99566.42;1735198;82;20119;-68
2022/03/24 06:12:10;;;;;;;;;;;;;;;5.22;60.46;99559.00;1742171;82;21878;-70
2022/03/24 06:14:42;;;;;;;;;;;;;;;5.31;60.17;99561.41;1742308;82;20414;-68
2022/03/24 06:17:10;;;;;;;;;;;;;;;5.40;59.62;99562.99;1742529;82;20234;-69
2022/03/24 06:19:39;;;;;;;;;;;;;;;5.42;59.43;99558.08;1742160;82;20182;-69
2022/03/24 06:22:07;;;;;;;;;;;;;;;5.47;58.95;99558.59;1742372;82;20099;-69
2022/03/24 06:24:36;;;;;;;;;;;;;;;5.52;58.80;99564.83;1742470;82;20439;-69
2022/03/24 06:27:04;;;;;;;;;;;;;;;5.62;59.44;99570.21;1742289;82;20134;-69
2022/03/24 06:29:32;;;;;;;;;;;;;;;5.75;58.17;99561.14;1742295;82;20119;-70
2022/03/24 06:31:59;;;;;;;;;;;;;;;5.85;58.17;99569.21;1742361;82;20087;-69
2022/03/24 06:34:26;;;;;;;;;;;;;;;5.94;58.20;99558.81;1739237;82;20083;-70
2022/03/24 06:36:55;;;;;;;;;;;;;;;6.08;57.30;99566.34;1728061;82;22062;-68
2022/03/24 06:39:22;;;;;;;;;;;;;;;6.14;56.76;99561.92;1712881;84;20086;-68
2022/03/24 06:41:49;;;;;;;;;;;;;;;6.20;56.58;99562.14;1712535;84;20180;-68
2022/03/24 06:44:16;;;;;;;;;;;;;;;6.31;58.23;99562.05;1712838;84;20433;-69
2022/03/24 06:46:45;;;;;;;;;;;;;;;6.38;55.52;99566.59;1713745;83;20181;-68
2022/03/24 06:49:15;;;;;;;;;;;;;;;6.45;55.82;99563.79;1716449;83;21227;-68
2022/03/24 06:51:42;;;;;;;;;;;;;;;6.53;55.89;99560.98;1717329;83;20114;-69
2022/03/24 06:54:12;;;;;;;;;;;;;;;6.61;54.02;99563.90;1717037;83;20093;-69
2022/03/24 06:56:40;;;;;;;;;;;;;;;6.65;54.28;99568.77;1715168;83;20137;-70
2022/03/24 06:59:10;;;;;;;;;;;;;;;6.70;54.48;99564.63;1716977;83;20085;-69
2022/03/24 07:01:40;;;;;;;;;;;;;;;6.81;53.67;99568.32;1717307;83;21802;-69
2022/03/24 07:04:06;;;;;;;;;;;;;;;6.91;53.20;99561.94;1717150;83;20084;-68
2022/03/24 07:06:34;;;;;;;;;;;;;;;6.94;53.04;99566.23;1717216;83;20120;-69
2022/03/24 07:09:18;;;;;;;;;;;;;;;7.05;53.02;99560.65;1717303;83;20086;-68
2022/03/24 07:11:35;;;;;;;;;;;;;;;7.14;51.64;99571.19;1713480;83;20086;-69
2022/03/24 07:14:05;;;;;;;;;;;;;;;7.24;52.43;99562.86;1717363;83;20136;-69
2022/03/24 07:16:34;;;;;;;;;;;;;;;7.42;51.47;99567.53;1717532;83;20090;-68
2022/03/24 07:19:03;;;;;;;;;;;;;;;7.58;49.69;99572.20;1711764;83;20152;-70
2022/03/24 07:21:36;;;;;;;;;;;;;;;7.66;48.96;99568.80;1694979;83;20097;-70
2022/03/24 07:24:04;;;;;;;;;;;;;;;7.86;48.87;99564.95;1694958;83;20097;-71
2022/03/24 07:26:34;;;;;;;;;;;;;;;8.24;48.10;99569.78;1717392;83;40023;-68
2022/03/24 07:29:01;;;;;;;;;;;;;;;8.69;47.23;99560.50;1717202;83;20101;-72
2022/03/24 07:31:28;;;;;;;;;;;;;;;9.15;46.54;99557.67;1716272;83;20146;-72
2022/03/24 07:33:56;;;;;;;;;;;;;;;9.67;46.40;99555.41;1716498;83;20732;-66
2022/03/24 07:36:23;;;;;;;;;;;;;;;10.23;44.52;99557.63;1717257;83;20085;-67
2022/03/24 07:38:51;;;;;;;;;;;;;;;10.59;41.06;99568.47;1717323;83;21146;-68
2022/03/24 07:41:18;;;;;;;;;;;;;;;10.51;40.40;99556.88;1717315;83;20085;-66
2022/03/24 07:43:45;;;;;;;;;;;;;;;10.51;41.77;99559.63;1717298;83;20125;-66
2022/03/24 07:46:12;;;;;;;;;;;;;;;10.82;41.52;99555.50;1716845;83;20102;-66
2022/03/24 07:48:39;;;;;;;;;;;;;;;11.12;40.39;99550.48;1715171;83;20117;-67
2022/03/24 07:51:08;;;;;;;;;;;;;;;11.16;39.35;99546.54;1715236;83;20487;-67
2022/03/24 07:53:50;;;;;;;;;;;;;;;11.20;39.14;99556.57;1715274;83;20486;-66
2022/03/24 07:56:18;;;;;;;;;;;;;;;11.20;38.38;99556.57;1715276;83;20122;-66
2022/03/24 07:58:45;;;;;;;;;;;;;;;11.16;39.55;99553.41;1715121;83;20113;-64
2022/03/24 08:01:12;;;;;;;;;;;;;;;11.42;39.60;99558.41;1714803;83;20452;-68
2022/03/24 08:03:39;;;;;;;;;;;;;;;11.63;37.82;99549.50;1714886;83;21262;-68
2022/03/24 08:06:07;;;;;;;;;;;;;;;11.58;37.96;99549.09;1715142;83;20114;-66
2022/03/24 08:08:33;;;;;;;;;;;;;;;11.54;38.62;99548.96;1715006;83;20164;-65
2022/03/24 08:11:04;;;;;;;;;;;;;;;11.45;37.46;99543.20;1715165;83;20113;-66
2022/03/24 08:13:32;;;;;;;;;;;;;;;11.45;38.65;99546.77;1714869;83;20086;-67
2022/03/24 08:16:00;;;;;;;;;;;;;;;11.52;36.98;99541.59;1715183;83;20109;-68
2022/03/24 08:18:29;;;;;;;;;;;;;;;11.53;36.99;99536.91;1714956;83;20433;-67
2022/03/24 08:20:57;;;;;;;;;;;;;;;11.83;37.53;99539.27;1715135;83;20424;-69
2022/03/24 08:23:24;;;;;;;;;;;;;;;12.15;35.83;99533.80;1715198;83;20120;-66
2022/03/24 08:25:51;;;;;;;;;;;;;;;12.28;36.53;99535.55;1715122;83;20110;-69
2022/03/24 08:28:18;;;;;;;;;;;;;;;12.48;36.09;99525.79;1714996;83;21105;-69
2022/03/24 08:30:45;;;;;;;;;;;;;;;12.78;35.04;99533.52;1724000;82;20096;-67
2022/03/24 08:33:12;;;;;;;;;;;;;;;13.00;33.98;99514.53;1734945;82;20071;-68
2022/03/24 08:35:40;;;;;;;;;;;;;;;13.11;34.01;99526.80;1744698;82;20189;-65
2022/03/24 08:38:07;;;;;;;;;;;;;;;13.29;34.32;99511.77;1744626;82;20111;-68
2022/03/24 08:40:34;;;;;;;;;;;;;;;13.57;33.81;99516.78;1744622;82;21061;-71
2022/03/24 08:43:03;;;;;;;;;;;;;;;13.80;33.29;99521.62;1743168;82;20083;-65
2022/03/24 08:45:36;;;;;;;;;;;;;;;13.88;31.98;99526.23;1740492;82;20151;-64
2022/03/24 08:48:07;;;;;;;;;;;;;;;13.81;32.51;99528.75;1722330;82;20188;-72
2022/03/24 08:50:36;;;;;;;;;;;;;;;13.98;33.35;99529.72;1741244;82;20123;-67
2022/03/24 08:53:11;;;;;;;;;;;;;;;14.19;31.35;99529.11;1741062;82;20437;-67
2022/03/24 08:55:39;;;;;;;;;;;;;;;14.07;32.46;99533.20;1718819;82;20099;-67
2022/03/24 08:58:18;;;;;;;;;;;;;;;13.94;31.98;99526.02;1746313;82;20098;-70
2022/03/24 09:00:41;;;;;;;;;;;;;;;13.90;32.06;99525.89;1743759;82;21084;-69
2022/03/24 09:03:08;;;;;;;;;;;;;;;13.87;30.58;99519.09;1742608;82;20136;-69
2022/03/24 09:05:38;;;;;;;;;;;;;;;13.43;31.71;99523.36;1743263;82;20223;-69
2022/03/24 09:08:16;;;;;;;;;;;;;;;13.14;31.16;99512.35;1743981;82;20098;-71
2022/03/24 09:10:47;;;;;;;;;;;;;;;12.69;31.56;99532.20;1722355;82;20146;-70
2022/03/24 09:13:14;;;;;;;;;;;;;;;12.62;30.93;99535.23;1744232;82;20091;-74
2022/03/24 09:15:45;;;;;;;;;;;;;;;12.60;30.75;99530.62;1744044;82;20183;-70
2022/03/24 09:18:21;;;;;;;;;;;;;;;12.45;30.79;99529.20;1744629;82;22286;-73
2022/03/24 09:20:48;;;;;;;;;;;;;;;12.58;30.85;99523.25;1743712;82;20154;-74
2022/03/24 09:23:21;;;;;;;;;;;;;;;12.91;30.71;99529.73;1744456;82;20139;-74
2022/03/24 09:25:52;;;;;;;;;;;;;;;13.27;30.75;99516.84;1744348;82;20115;-72
2022/03/24 09:28:18;;;;;;;;;;;;;;;13.50;31.81;99525.58;1744178;82;20076;-74
2022/03/24 09:30:50;;;;;;;;;;;;;;;13.49;31.72;99519.83;1746654;82;20111;-70
2022/03/24 09:33:22;;;;;;;;;;;;;;;13.47;31.98;99512.47;1744127;82;20119;-70
2022/03/24 09:35:59;;;;;;;;;;;;;;;13.48;31.77;99531.44;1742377;82;20430;-82
2022/03/24 09:38:35;;;;;;;;;;;;;;;13.43;31.14;99526.69;1744082;82;20445;-68
2022/03/24 09:41:07;;;;;;;;;;;;;;;13.15;32.39;99510.64;1722861;82;20119;-65
2022/03/24 09:43:37;;;;;;;;;;;;;;;13.04;31.09;99530.08;1724064;82;21513;-65
2022/03/24 09:46:09;;;;;;;;;;;;;;;12.75;31.60;99488.73;1740292;82;20115;-69
2022/03/24 09:48:44;;;;;;;;;;;;;;;12.53;33.93;99529.17;1746793;82;20146;-69
2022/03/24 09:51:16;;;;;;;;;;;;;;;12.75;32.87;99528.66;1745436;82;20481;-69
2022/03/24 09:53:43;;;;;;;;;;;;;;;13.03;32.77;99529.84;1696587;82;20451;-68
2022/03/24 09:56:11;;;;;;;;;;;;;;;13.17;32.42;99534.58;1717756;82;21227;-70
2022/03/24 09:58:44;;;;;;;;;;;;;;;13.06;31.68;99537.44;1708179;83;20397;-65
2022/03/24 10:01:13;;;;;;;;;;;;;;;12.95;32.19;99530.69;1716163;83;20077;-67
2022/03/24 10:03:43;;;;;;;;;;;;;;;13.06;32.04;99538.02;1717166;83;20109;-65
2022/03/24 10:06:14;;;;;;;;;;;;;;;12.88;32.12;99535.91;1700745;82;20129;-70
2022/03/24 10:08:43;;;;;;;;;;;;;;;12.76;32.47;99537.17;1742043;82;21257;-71
2022/03/24 10:11:19;;;;;;;;;;;;;;;12.95;33.41;99534.02;1701658;83;20419;-66
2022/03/24 10:13:51;;;;;;;;;;;;;;;13.30;32.66;99524.98;1715384;82;20170;-71
2022/03/24 10:16:41;;;;;;;;;;;;;;;13.78;32.76;99537.70;1720897;82;20160;-70
2022/03/24 10:19:14;;;;;;;;;;;;;;;14.27;31.31;99521.31;1740120;82;20157;-70
2022/03/24 10:21:47;;;;;;;;;;;;;;;14.46;30.03;99524.36;1744750;82;21085;-70
2022/03/24 10:24:21;;;;;;;;;;;;;;;14.24;30.13;99533.05;1745125;82;20104;-72
2022/03/24 10:27:03;;;;;;;;;;;;;;;14.14;30.98;99532.89;1718580;82;20173;-71
2022/03/24 10:29:34;;;;;;;;;;;;;;;14.21;29.59;99510.25;1742542;82;20122;-68
2022/03/24 10:32:16;;;;;;;;;;;;;;;14.05;30.39;99540.45;1723758;82;20469;-66
2022/03/24 10:34:50;;;;;;;;;;;;;;;13.89;30.24;99525.66;1745957;82;21136;-67
2022/03/24 10:37:25;;;;;;;;;;;;;;;13.51;30.06;99539.03;1743373;82;20097;-71
2022/03/24 10:40:08;;;;;;;;;;;;;;;13.07;30.88;99536.87;1733180;82;20201;-72
2022/03/24 10:42:36;;;;;;;;;;;;;;;12.86;31.77;99532.67;1738739;82;20093;-67
2022/03/24 10:45:22;;;;;;;;;;;;;;;13.02;32.38;99531.55;1709024;82;20460;-68
2022/03/24 10:47:56;;;;;;;;;;;;;;;13.29;31.53;99526.94;1711284;82;20165;-69
2022/03/24 10:50:28;;;;;;;;;;;;;;;13.30;31.53;99531.31;1724069;82;20408;-70
2022/03/24 10:53:07;;;;;;;;;;;;;;;13.34;31.28;99532.83;1719443;82;20134;-66
2022/03/24 10:55:53;;;;;;;;;;;;;;;13.26;32.01;99534.53;1718174;82;20160;-67
2022/03/24 10:58:32;;;;;;;;;;;;;;;13.19;31.34;99525.41;1726478;82;20695;-69
2022/03/24 11:01:05;;;;;;;;;;;;;;;13.03;32.45;99533.97;1691014;84;21141;-69
2022/03/24 11:03:36;;;;;;;;;;;;;;;13.10;31.90;99535.64;1678177;83;20151;-70
2022/03/24 11:06:17;;;;;;;;;;;;;;;13.16;31.62;99532.16;1718314;83;20109;-69
2022/03/24 11:08:51;;;;;;;;;;;;;;;13.27;31.01;99532.01;1711128;82;20134;-71
2022/03/24 11:11:20;;;;;;;;;;;;;;;12.81;30.86;99539.74;1727121;82;20196;-70
2022/03/24 11:13:55;;;;;;;;;;;;;;;12.13;31.20;99545.13;1729302;82;21250;-70
2022/03/24 11:16:25;;;;;;;;;;;;;;;12.01;31.10;99522.19;1733052;82;20136;-67
2022/03/24 11:18:57;;;;;;;;;;;;;;;12.10;30.91;99526.55;1724848;82;20101;-68
2022/03/24 11:21:49;;;;;;;;;;;;;;;12.39;31.88;99534.08;1725193;82;20170;-66
2022/03/24 11:24:20;;;;;;;;;;;;;;;12.79;29.96;99536.52;1735685;82;20097;-67
2022/03/24 11:26:54;;;;;;;;;;;;;;;12.90;30.44;99532.25;1716349;82;20108;-69
2022/03/24 11:29:21;;;;;;;;;;;;;;;13.05;30.05;99501.38;1700601;82;20173;-68
2022/03/24 11:31:49;;;;;;;;;;;;;;;13.02;29.87;99526.84;1728277;82;20204;-68
2022/03/24 11:34:18;;;;;;;;;;;;;;;12.85;30.18;99522.22;1713581;82;20122;-70
2022/03/24 11:36:47;;;;;;;;;;;;;;;12.84;30.64;99522.55;1732276;82;20089;-68
2022/03/24 11:39:17;;;;;;;;;;;;;;;12.95;30.34;99523.80;1716686;82;21173;-69
2022/03/24 11:41:53;;;;;;;;;;;;;;;12.99;30.31;99516.48;1738315;82;20099;-68
2022/03/24 11:44:48;;;;;;;;;;;;;;;13.08;29.76;99512.30;1735320;82;20111;-69
2022/03/24 11:47:19;;;;;;;;;;;;;;;13.25;28.84;99519.13;1725733;82;20743;-68
2022/03/24 11:50:10;;;;;;;;;;;;;;;13.19;28.61;99519.89;1736376;82;20156;-70
2022/03/24 11:52:36;;;;;;;;;;;;;;;13.08;29.18;99520.00;1696346;82;20221;-70
2022/03/24 11:55:13;;;;;;;;;;;;;;;13.41;28.94;99513.80;1715207;82;20071;-69
2022/03/24 11:57:44;;;;;;;;;;;;;;;13.31;29.06;99510.06;1733578;82;20455;-68
2022/03/24 12:00:24;;;;;;;;;;;;;;;13.29;30.06;99509.59;1697920;83;20142;-69
2022/03/24 12:02:53;;;;;;;;;;;;;;;13.45;29.42;99509.23;1715460;82;20133;-66
2022/03/24 12:05:20;;;;;;;;;;;;;;;13.30;29.45;99516.72;1732001;82;21157;-68
2022/03/24 12:07:53;;;;;;;;;;;;;;;13.03;29.98;99527.65;1731672;82;20086;-69
2022/03/24 12:10:32;;;;;;;;;;;;;;;13.10;30.86;99522.42;1736347;82;20453;-69
2022/03/24 12:13:22;;;;;;;;;;;;;;;13.43;29.79;99519.80;1736484;82;20191;-66
2022/03/24 12:16:12;;;;;;;;;;;;;;;13.79;30.31;99513.11;1737677;82;20144;-69
2022/03/24 12:18:45;;;;;;;;;;;;;;;14.20;28.61;99518.30;1737158;82;20115;-71
2022/03/24 12:21:30;;;;;;;;;;;;;;;14.23;28.97;99529.24;1710169;82;20154;-68
2022/03/24 12:24:11;;;;;;;;;;;;;;;13.87;28.61;99525.99;1738554;82;20119;-66
2022/03/24 12:26:51;;;;;;;;;;;;;;;13.40;29.51;99535.05;1735248;82;20143;-70
2022/03/24 12:29:26;;;;;;;;;;;;;;;12.97;29.50;99531.73;1735836;82;20183;-70
2022/03/24 12:32:06;;;;;;;;;;;;;;;12.42;29.83;99544.44;1718223;82;20131;-66
2022/03/24 12:34:44;;;;;;;;;;;;;;;12.13;30.10;99545.73;1707222;82;20407;-66
2022/03/24 12:37:39;;;;;;;;;;;;;;;12.13;31.31;99537.47;1706037;83;20110;-69
2022/03/24 12:40:09;;;;;;;;;;;;;;;12.39;30.75;99538.77;1712099;82;20430;-68
2022/03/24 12:42:49;;;;;;;;;;;;;;;12.39;30.64;99546.46;1719543;82;20171;-68
2022/03/24 12:45:29;;;;;;;;;;;;;;;12.13;30.80;99530.59;1736576;82;20644;-70
2022/03/24 12:48:08;;;;;;;;;;;;;;;12.06;31.81;99542.09;1738744;82;20171;-70
2022/03/24 12:50:45;;;;;;;;;;;;;;;12.38;30.91;99532.45;1735553;82;20126;-70
2022/03/24 12:53:13;;;;;;;;;;;;;;;12.41;30.50;99540.62;1742546;82;20119;-70
2022/03/24 12:55:56;;;;;;;;;;;;;;;12.26;30.83;99541.95;1740697;82;20123;-70
2022/03/24 12:58:23;;;;;;;;;;;;;;;11.89;30.92;99544.29;1735839;82;21182;-68
2022/03/24 13:00:50;;;;;;;;;;;;;;;11.45;31.63;99555.58;1720361;82;20462;-69
2022/03/24 13:03:20;;;;;;;;;;;;;;;11.11;32.28;99545.31;1720612;82;20163;-67
2022/03/24 13:05:58;;;;;;;;;;;;;;;11.17;32.89;99543.47;1742363;82;20151;-73